Avioradar koristi kolačiće da bi Vam omogućio jednostavnije i ugodnije korištenje stranice. 

AVIORADAR - Croatian aviation website

METAR & TAF

[Source: ADDS]
METAR
LDZA 271600Z 12003KT 9999 FEW038 11/06 Q1027 NOSIG =
LDZA 271125Z 2712/2812 04004KT CAVOK TX15/2713Z TN01/2806Z BECMG 2720/2722 1200 BR BECMG 2722/2800 0100 FG VV001 BECMG 2809/2811 CAVOK LDSP 271600Z 30003KT 260V330 CAVOK 16/04 Q1021 NOSIG =
LDSP 271125Z 2712/2812 15007KT CAVOK TX21/2713Z TN11/2805Z BECMG 2712/2714 23008KT BECMG 2715/2717 31008KT LDDU 271600Z 31007KT CAVOK 16/09 Q1020 BECMG 34005KT =
LDDU 271125Z 2712/2812 24007KT CAVOK TX20/2712Z TN12/2805Z BECMG 2712/2714 29008KT BECMG 2717/2719 02009KT BECMG 2810/2812 28007KT LDPL 271600Z 05004KT CAVOK 14/06 Q1023 NOSIG =
LDPL 271125Z 2712/2812 06010KT CAVOK TX19/2713Z TN06/2806Z BECMG 2808/2810 06006KT LDZD 271600Z 16006KT CAVOK 16/05 Q1022 NOSIG =
COR LDZD 271520Z 2712/2812 27008KT CAVOK TX20/2712Z TN04/2805Z BECMG 2714/2716 08007KT PROB30 TEMPO 2716/2800 07008KT LDRI 271600Z 04006KT CAVOK 16/03 Q1024 =
LDRI 271125Z 2712/2812 04010KT CAVOK TX18/2713Z TN09/2806Z PROB40 TEMPO 2712/2720 04015G30KT PROB30 TEMPO 2712/2720 32010KT LDOS 271600Z 06002KT 050V130 CAVOK 11/04 Q1027 =
LDOS 271125Z 2712/2812 VRB02KT CAVOK TX13/2713Z TN00/2806Z BECMG 2720/2722 2000 BR PROB40 2800/2808 0200 FG VV002 BECMG 2808/2810 CAVOK
TAF
LDZA 271125Z 2712/2812 04004KT CAVOK TX15/2713Z TN01/2806Z BECMG 2720/2722 1200 BR BECMG 2722/2800 0100 FG VV001 BECMG 2809/2811 CAVOK =
LDSP 271125Z 2712/2812 15007KT CAVOK TX21/2713Z TN11/2805Z BECMG 2712/2714 23008KT BECMG 2715/2717 31008KT =
LDDU 271125Z 2712/2812 24007KT CAVOK TX20/2712Z TN12/2805Z BECMG 2712/2714 29008KT BECMG 2717/2719 02009KT BECMG 2810/2812 28007KT =
LDPL 271125Z 2712/2812 06010KT CAVOK TX19/2713Z TN06/2806Z BECMG 2808/2810 06006KT =
COR LDZD 271520Z 2712/2812 27008KT CAVOK TX20/2712Z TN04/2805Z BECMG 2714/2716 08007KT PROB30 TEMPO 2716/2800 07008KT =
LDRI 271125Z 2712/2812 04010KT CAVOK TX18/2713Z TN09/2806Z PROB40 TEMPO 2712/2720 04015G30KT PROB30 TEMPO 2712/2720 32010KT =
LDOS 271125Z 2712/2812 VRB02KT CAVOK TX13/2713Z TN00/2806Z BECMG 2720/2722 2000 BR PROB40 2800/2808 0200 FG VV002 BECMG 2808/2810 CAVOK =
SR / SS: 05:29 / 15:49 UTC (Zagreb 2021-10-27)